createdAt,value
2018-04-06T00:01:42.329Z,75.00
2018-04-06T00:04:08.597Z,75.00
2018-04-06T00:06:34.829Z,74.50
2018-04-06T00:09:01.114Z,74.10
2018-04-06T00:11:27.390Z,74.60
2018-04-06T00:13:53.991Z,76.30
2018-04-06T00:16:20.226Z,76.30
2018-04-06T00:18:46.482Z,74.90
2018-04-06T00:21:13.056Z,75.30
2018-04-06T00:23:40.004Z,75.30
2018-04-06T00:26:06.204Z,74.90
2018-04-06T00:28:32.472Z,74.70
2018-04-06T00:30:58.721Z,75.00
2018-04-06T00:33:24.926Z,75.00
2018-04-06T00:35:51.192Z,75.50
2018-04-06T00:38:17.444Z,75.20
2018-04-06T00:40:44.054Z,75.20
2018-04-06T00:43:10.246Z,75.20
2018-04-06T00:45:36.477Z,75.10
2018-04-06T00:48:02.694Z,75.40
2018-04-06T00:50:29.664Z,75.30
2018-04-06T00:52:55.901Z,76.40
2018-04-06T00:55:22.139Z,76.30
2018-04-06T00:57:48.358Z,77.00
2018-04-06T01:00:14.588Z,76.30
2018-04-06T01:02:40.807Z,76.60
2018-04-06T01:05:07.036Z,76.50
2018-04-06T01:07:33.255Z,77.40
2018-04-06T01:09:59.496Z,76.80
2018-04-06T01:12:25.712Z,77.50
2018-04-06T01:14:51.932Z,77.50
2018-04-06T01:17:18.145Z,77.70
2018-04-06T01:19:44.447Z,78.70
2018-04-06T01:22:11.050Z,77.10
2018-04-06T01:24:37.242Z,77.10
2018-04-06T01:27:03.449Z,76.50
2018-04-06T01:29:29.664Z,76.20
2018-04-06T01:31:55.869Z,76.80
2018-04-06T01:34:22.082Z,76.80
2018-04-06T01:36:48.316Z,76.80
2018-04-06T01:39:14.535Z,76.80
2018-04-06T01:41:40.757Z,76.90
2018-04-06T01:44:06.968Z,76.80
2018-04-06T01:46:33.209Z,78.30
2018-04-06T01:48:59.438Z,78.70
2018-04-06T01:51:25.717Z,77.80
2018-04-06T01:53:52.294Z,78.20
2018-04-06T01:56:18.562Z,78.20
2018-04-06T01:58:44.779Z,78.10
2018-04-06T02:01:10.997Z,77.80
2018-04-06T02:03:37.218Z,77.90
2018-04-06T02:06:03.499Z,77.80
2018-04-06T02:08:29.754Z,78.10
2018-04-06T02:10:56.002Z,78.70
2018-04-06T02:13:22.253Z,78.10
2018-04-06T02:15:49.792Z,78.20
2018-04-06T02:18:16.039Z,78.10
2018-04-06T02:20:42.275Z,78.30
2018-04-06T02:23:08.518Z,79.10
2018-04-06T02:25:34.758Z,79.60
2018-04-06T02:28:00.975Z,79.20
2018-04-06T02:30:27.264Z,79.60
2018-04-06T02:32:53.477Z,79.00
2018-04-06T02:35:19.737Z,78.20
2018-04-06T02:37:45.951Z,78.70
2018-04-06T02:40:12.195Z,79.40
2018-04-06T02:42:38.402Z,79.60
2018-04-06T02:45:04.623Z,79.40
2018-04-06T02:47:30.859Z,79.20
2018-04-06T02:49:57.147Z,79.90
2018-04-06T02:52:23.405Z,80.50
2018-04-06T02:54:49.618Z,80.40
2018-04-06T02:57:15.847Z,80.40
2018-04-06T02:59:42.077Z,80.10
2018-04-06T03:02:08.309Z,80.00
2018-04-06T03:04:34.563Z,79.80
2018-04-06T03:07:00.813Z,80.00
2018-04-06T03:09:27.061Z,80.20
2018-04-06T03:11:53.321Z,80.30
2018-04-06T03:14:19.538Z,80.50
2018-04-06T03:16:45.792Z,80.10
2018-04-06T03:19:12.033Z,79.90
2018-04-06T03:21:38.288Z,79.90
2018-04-06T03:24:04.909Z,80.00
2018-04-06T03:26:31.177Z,80.00
2018-04-06T03:28:57.389Z,80.10
2018-04-06T03:31:23.990Z,80.30
2018-04-06T03:33:50.193Z,80.30
2018-04-06T03:36:16.419Z,80.20
2018-04-06T03:38:42.630Z,79.90
2018-04-06T03:41:08.876Z,80.10
2018-04-06T03:43:35.130Z,80.50
2018-04-06T03:46:01.365Z,80.30
2018-04-06T03:48:27.622Z,80.30
2018-04-06T03:50:54.252Z,80.20
2018-04-06T03:53:20.470Z,80.00
2018-04-06T03:55:46.694Z,80.30
2018-04-06T03:58:12.979Z,80.50
2018-04-06T04:00:39.246Z,80.30
2018-04-06T04:03:05.519Z,80.50
2018-04-06T04:05:31.763Z,80.70
2018-04-06T04:07:58.020Z,80.80
2018-04-06T04:10:24.237Z,80.90
2018-04-06T04:12:51.767Z,80.70
2018-04-06T04:15:18.013Z,81.20
2018-04-06T04:17:44.294Z,81.30
2018-04-06T04:20:10.886Z,81.10
2018-04-06T04:22:37.157Z,81.20
2018-04-06T04:25:03.401Z,81.30
2018-04-06T04:27:30.011Z,81.00
2018-04-06T04:29:56.912Z,81.00
2018-04-06T04:32:23.173Z,81.00
2018-04-06T04:34:49.380Z,81.10
2018-04-06T04:37:15.628Z,80.90
2018-04-06T04:39:41.889Z,80.40
2018-04-06T04:42:08.566Z,80.60
2018-04-06T04:44:34.822Z,80.60
2018-04-06T04:47:01.149Z,80.50
2018-04-06T04:49:27.406Z,80.50
2018-04-06T04:51:53.687Z,80.50
2018-04-06T04:54:19.919Z,80.90
2018-04-06T04:56:46.193Z,80.60
2018-04-06T04:59:12.820Z,81.00
2018-04-06T05:01:39.054Z,81.00
2018-04-06T05:04:06.326Z,80.80
2018-04-06T05:06:32.937Z,81.00
2018-04-06T05:08:59.216Z,81.00
2018-04-06T05:11:25.450Z,81.10
2018-04-06T05:13:51.736Z,81.30
2018-04-06T05:16:17.949Z,81.20
2018-04-06T05:18:44.207Z,81.20
2018-04-06T05:21:10.401Z,81.10
2018-04-06T05:23:36.628Z,81.50
2018-04-06T05:26:02.849Z,81.50
2018-04-06T05:28:29.100Z,81.30
2018-04-06T05:30:55.310Z,81.40
2018-04-06T05:33:21.568Z,81.10
2018-04-06T05:35:48.787Z,80.30
2018-04-06T05:38:15.038Z,80.30
2018-04-06T05:40:41.286Z,79.90
2018-04-06T05:43:07.546Z,79.70
2018-04-06T05:45:33.776Z,79.70
2018-04-06T05:48:00.061Z,79.10
2018-04-06T05:50:26.665Z,78.10
2018-04-06T05:52:52.930Z,78.10
2018-04-06T05:55:19.514Z,77.50
2018-04-06T05:57:45.728Z,77.50
2018-04-06T06:00:11.961Z,77.10
2018-04-06T06:02:38.218Z,77.20
2018-04-06T06:05:04.468Z,77.30
2018-04-06T06:07:30.732Z,76.80
2018-04-06T06:09:56.971Z,76.90
2018-04-06T06:12:23.272Z,76.50
2018-04-06T06:14:49.529Z,76.10
2018-04-06T06:17:15.779Z,76.00
2018-04-06T06:19:42.051Z,76.60
2018-04-06T06:22:08.686Z,75.70
2018-04-06T06:24:35.359Z,75.80
2018-04-06T06:27:01.581Z,75.80
2018-04-06T06:29:27.835Z,75.40
2018-04-06T06:31:54.070Z,74.90
2018-04-06T06:34:20.306Z,74.80
2018-04-06T06:36:46.526Z,74.60
2018-04-06T06:39:12.760Z,74.10
2018-04-06T06:41:38.982Z,74.10
2018-04-06T06:44:05.234Z,73.50
2018-04-06T06:46:31.813Z,73.80
2018-04-06T06:48:58.103Z,74.40
2018-04-06T06:51:24.346Z,74.00
2018-04-06T06:53:50.958Z,73.90
2018-04-06T06:56:17.277Z,73.90
2018-04-06T06:58:43.541Z,74.00
2018-04-06T07:01:10.138Z,74.00
2018-04-06T07:03:36.384Z,74.00
2018-04-06T07:06:02.618Z,73.30
2018-04-06T07:08:28.872Z,72.40
2018-04-06T07:10:55.448Z,72.10
2018-04-06T07:13:21.675Z,72.10
2018-04-06T07:15:47.928Z,71.80
2018-04-06T07:18:14.164Z,71.40
2018-04-06T07:20:40.431Z,70.80
2018-04-06T07:23:06.656Z,70.80
2018-04-06T07:25:32.911Z,71.40
2018-04-06T07:27:59.167Z,71.30
2018-04-06T07:30:26.274Z,70.90
2018-04-06T07:32:53.227Z,71.60
2018-04-06T07:35:19.482Z,71.60
2018-04-06T07:37:45.718Z,71.60
2018-04-06T07:40:11.988Z,70.90
2018-04-06T07:42:38.596Z,70.80
2018-04-06T07:45:04.842Z,70.80
2018-04-06T07:47:31.429Z,69.60
2018-04-06T07:49:57.706Z,69.60
2018-04-06T07:52:23.915Z,69.30
2018-04-06T07:54:50.168Z,68.80
2018-04-06T07:57:16.411Z,68.60
2018-04-06T07:59:42.616Z,68.60
2018-04-06T08:02:08.919Z,66.40
2018-04-06T08:04:35.175Z,67.90
2018-04-06T08:07:01.765Z,68.20
2018-04-06T08:09:27.999Z,68.20
2018-04-06T08:11:54.191Z,66.90
2018-04-06T08:14:20.410Z,66.80
2018-04-06T08:16:46.656Z,66.00
2018-04-06T08:19:12.945Z,65.80
2018-04-06T08:21:39.162Z,65.50
2018-04-06T08:24:05.798Z,64.50
2018-04-06T08:26:32.888Z,64.50
2018-04-06T08:28:59.133Z,65.30
2018-04-06T08:31:25.388Z,65.00
2018-04-06T08:33:51.650Z,64.50
2018-04-06T08:36:18.267Z,63.20
2018-04-06T08:38:44.530Z,63.20
2018-04-06T08:41:10.768Z,63.30
2018-04-06T08:43:36.999Z,63.20
2018-04-06T08:46:03.274Z,63.00
2018-04-06T08:48:29.527Z,61.90
2018-04-06T08:50:55.758Z,63.20
2018-04-06T08:53:22.321Z,63.30
2018-04-06T08:55:48.580Z,63.30
2018-04-06T08:58:14.795Z,62.70
2018-04-06T09:00:41.015Z,61.50
2018-04-06T09:03:07.287Z,61.30
2018-04-06T09:05:33.469Z,60.40
2018-04-06T09:08:00.687Z,60.90
2018-04-06T09:10:26.964Z,61.10
2018-04-06T09:12:53.224Z,60.70
2018-04-06T09:15:19.527Z,62.10
2018-04-06T09:17:45.745Z,61.30
2018-04-06T09:20:12.006Z,61.60
2018-04-06T09:22:38.340Z,60.50
2018-04-06T09:25:04.594Z,61.00
2018-04-06T09:27:31.177Z,60.60
2018-04-06T09:29:57.433Z,60.60
2018-04-06T09:32:23.693Z,59.60
2018-04-06T09:34:50.272Z,59.60
2018-04-06T09:37:16.509Z,59.60
2018-04-06T09:39:42.759Z,61.00
2018-04-06T09:42:08.994Z,59.70
2018-04-06T09:44:35.237Z,59.10
2018-04-06T09:47:01.887Z,57.80
2018-04-06T09:49:28.215Z,57.80
2018-04-06T09:51:54.464Z,57.20
2018-04-06T09:54:20.664Z,58.30
2018-04-06T09:56:46.902Z,57.60
2018-04-06T09:59:13.162Z,58.10
2018-04-06T10:01:39.504Z,58.10
2018-04-06T10:04:05.747Z,57.70
2018-04-06T10:06:32.043Z,58.40
2018-04-06T10:08:58.336Z,56.40
2018-04-06T10:11:25.998Z,55.10
2018-04-06T10:13:52.568Z,56.30
2018-04-06T10:16:18.869Z,56.30
2018-04-06T10:18:45.103Z,54.30
2018-04-06T10:21:12.366Z,55.20
2018-04-06T10:23:38.570Z,52.10
2018-04-06T10:26:04.808Z,53.00
2018-04-06T10:28:31.249Z,49.20
2018-04-06T10:30:58.095Z,46.30
2018-04-06T10:33:24.384Z,43.60
2018-04-06T10:35:50.641Z,40.30
2018-04-06T10:38:17.481Z,37.70
2018-04-06T10:40:44.099Z,33.80
2018-04-06T10:43:10.306Z,33.70
2018-04-06T10:45:36.571Z,31.00
2018-04-06T10:48:03.149Z,28.80
2018-04-06T10:50:29.354Z,28.80
2018-04-06T10:52:55.599Z,28.30
2018-04-06T10:55:21.855Z,27.90
2018-04-06T10:57:48.094Z,26.10
2018-04-06T11:00:14.339Z,25.30
2018-04-06T11:02:40.975Z,22.70
2018-04-06T11:05:07.225Z,22.70
2018-04-06T11:07:33.816Z,23.60
2018-04-06T11:10:00.042Z,23.60
2018-04-06T11:12:26.279Z,21.60
2018-04-06T11:14:52.492Z,20.60
2018-04-06T11:17:18.715Z,20.70
2018-04-06T11:19:44.926Z,20.10
2018-04-06T11:22:11.205Z,19.50
2018-04-06T11:24:37.445Z,19.20
2018-04-06T11:27:04.638Z,19.90
2018-04-06T11:29:31.470Z,19.90
2018-04-06T11:31:57.738Z,18.50
2018-04-06T11:34:24.041Z,18.40
2018-04-06T11:36:50.392Z,18.80
2018-04-06T11:39:17.163Z,17.90
2018-04-06T11:41:43.518Z,17.60
2018-04-06T11:44:09.820Z,18.10
2018-04-06T11:46:36.071Z,17.90
2018-04-06T11:49:02.345Z,18.10
2018-04-06T11:51:28.591Z,18.10
2018-04-06T11:53:54.833Z,18.80
2018-04-06T11:56:21.097Z,18.90
2018-04-06T11:58:47.355Z,17.90
2018-04-06T12:01:13.620Z,17.50
2018-04-06T12:03:39.840Z,17.60
2018-04-06T12:06:06.051Z,16.90
2018-04-06T12:08:32.320Z,17.10
2018-04-06T12:10:59.114Z,17.70
2018-04-06T12:13:25.353Z,16.80
2018-04-06T12:15:51.568Z,16.90
2018-04-06T12:18:17.802Z,16.40
2018-04-06T12:20:44.036Z,17.00
2018-04-06T12:23:10.299Z,16.50
2018-04-06T12:25:36.577Z,16.80
2018-04-06T12:28:02.838Z,17.10
2018-04-06T12:30:29.737Z,16.80
2018-04-06T12:32:56.009Z,18.10
2018-04-06T12:35:22.242Z,18.50
2018-04-06T12:37:48.531Z,18.80
2018-04-06T12:40:14.776Z,18.70
2018-04-06T12:42:41.028Z,20.20
2018-04-06T12:45:07.324Z,21.60
2018-04-06T12:47:33.619Z,22.20
2018-04-06T12:49:59.838Z,21.90
2018-04-06T12:52:26.051Z,22.40
2018-04-06T12:54:52.290Z,24.00
2018-04-06T12:57:18.520Z,25.40
2018-04-06T12:59:44.778Z,26.80
2018-04-06T13:02:11.016Z,27.80
2018-04-06T13:04:37.277Z,28.10
2018-04-06T13:07:03.523Z,29.80
2018-04-06T13:09:30.162Z,29.10
2018-04-06T13:11:56.762Z,30.40
2018-04-06T13:14:22.959Z,30.50
2018-04-06T13:16:49.212Z,29.50
2018-04-06T13:19:15.442Z,29.40
2018-04-06T13:21:41.664Z,28.90
2018-04-06T13:24:07.908Z,29.00
2018-04-06T13:26:34.183Z,29.30
2018-04-06T13:29:00.810Z,29.90
2018-04-06T13:31:27.420Z,30.40
2018-04-06T13:33:53.638Z,30.30
2018-04-06T13:36:19.884Z,30.90
2018-04-06T13:38:46.140Z,30.80
2018-04-06T13:41:12.731Z,31.90
2018-04-06T13:43:38.971Z,31.90
2018-04-06T13:46:05.249Z,30.90
2018-04-06T13:48:31.523Z,32.90
2018-04-06T13:50:57.759Z,31.90
2018-04-06T13:53:23.984Z,32.90
2018-04-06T13:55:50.225Z,31.80
2018-04-06T13:58:16.447Z,31.40
2018-04-06T14:00:42.726Z,29.30
2018-04-06T14:03:08.916Z,30.50
2018-04-06T14:05:35.525Z,30.10
2018-04-06T14:08:01.801Z,30.10
2018-04-06T14:10:28.027Z,30.60
2018-04-06T14:12:55.500Z,30.50
2018-04-06T14:15:21.720Z,30.50
2018-04-06T14:17:47.940Z,30.90
2018-04-06T14:20:14.228Z,30.50
2018-04-06T14:22:40.436Z,31.30
2018-04-06T14:25:06.726Z,31.60
2018-04-06T14:27:33.318Z,31.50
2018-04-06T14:30:00.567Z,31.50
2018-04-06T14:32:26.819Z,30.70
2018-04-06T14:34:53.052Z,30.80
2018-04-06T14:37:19.292Z,31.90
2018-04-06T14:39:45.876Z,31.40
2018-04-06T14:42:12.077Z,31.40
2018-04-06T14:44:38.301Z,32.90
2018-04-06T14:47:04.876Z,30.40
2018-04-06T14:49:31.143Z,30.90
2018-04-06T14:51:57.401Z,32.00
2018-04-06T14:54:23.626Z,32.50
2018-04-06T14:56:49.855Z,32.40
2018-04-06T14:59:16.117Z,31.90
2018-04-06T15:01:43.131Z,33.10
2018-04-06T15:04:09.347Z,32.30
2018-04-06T15:06:35.627Z,32.10
2018-04-06T15:09:01.903Z,31.60
2018-04-06T15:11:28.501Z,32.50
2018-04-06T15:13:54.747Z,32.50
2018-04-06T15:16:21.002Z,34.20
2018-04-06T15:18:47.584Z,34.30
2018-04-06T15:21:13.847Z,34.30
2018-04-06T15:23:41.765Z,34.40
2018-04-06T15:26:07.997Z,34.40
2018-04-06T15:28:34.288Z,34.70
2018-04-06T15:31:00.592Z,34.70
2018-04-06T15:33:26.806Z,33.90
2018-04-06T15:35:53.132Z,34.10
2018-04-06T15:38:19.380Z,33.70
2018-04-06T15:40:45.622Z,34.40
2018-04-06T15:43:12.232Z,34.80
2018-04-06T15:45:38.483Z,34.80
2018-04-06T15:48:06.051Z,35.50
2018-04-06T15:50:32.650Z,35.80
2018-04-06T15:52:58.901Z,35.80
2018-04-06T15:55:25.164Z,35.70
2018-04-06T15:57:51.365Z,35.50
2018-04-06T16:00:17.991Z,37.00
2018-04-06T16:02:44.224Z,37.00
2018-04-06T16:05:10.503Z,37.10
2018-04-06T16:07:36.887Z,39.10
2018-04-06T16:10:03.546Z,39.10
2018-04-06T16:12:29.795Z,39.10
2018-04-06T16:14:56.084Z,38.70
2018-04-06T16:17:22.318Z,39.10
2018-04-06T16:19:48.581Z,40.30
2018-04-06T16:22:14.860Z,39.70
2018-04-06T16:24:41.100Z,39.80
2018-04-06T16:27:07.715Z,40.80
2018-04-06T16:29:33.989Z,40.80
2018-04-06T16:32:00.249Z,40.60
2018-04-06T16:34:26.467Z,41.90
2018-04-06T16:36:52.719Z,42.10
2018-04-06T16:39:18.982Z,43.00
2018-04-06T16:41:45.615Z,43.90
2018-04-06T16:44:11.945Z,43.90
2018-04-06T16:46:38.547Z,44.80
2018-04-06T16:49:04.814Z,44.80
2018-04-06T16:51:31.432Z,44.00
2018-04-06T16:53:57.649Z,44.00
2018-04-06T16:56:24.532Z,44.50
2018-04-06T16:58:50.794Z,45.20
2018-04-06T17:01:17.045Z,45.70
2018-04-06T17:03:44.867Z,46.20
2018-04-06T17:06:11.122Z,45.90
2018-04-06T17:08:37.383Z,46.40
2018-04-06T17:11:03.608Z,46.60
2018-04-06T17:13:29.905Z,47.30
2018-04-06T17:15:56.116Z,47.00
2018-04-06T17:18:22.358Z,46.90
2018-04-06T17:20:55.659Z,46.30
2018-04-06T17:23:21.917Z,47.20
2018-04-06T17:25:49.515Z,46.90
2018-04-06T17:28:15.769Z,47.30
2018-04-06T17:30:42.003Z,46.90
2018-04-06T17:33:08.283Z,47.20
2018-04-06T17:35:35.546Z,47.70
2018-04-06T17:38:01.785Z,47.80
2018-04-06T17:40:28.757Z,47.60
2018-04-06T17:42:55.028Z,47.60
2018-04-06T17:45:21.262Z,48.70
2018-04-06T17:47:47.490Z,49.20
2018-04-06T17:50:13.759Z,48.40
2018-04-06T17:52:40.038Z,48.10
2018-04-06T17:55:06.304Z,48.70
2018-04-06T17:57:32.527Z,48.10
2018-04-06T17:59:58.776Z,48.30
2018-04-06T18:02:25.031Z,48.00
2018-04-06T18:04:51.314Z,49.40
2018-04-06T18:07:17.648Z,49.60
2018-04-06T18:09:43.892Z,49.00
2018-04-06T18:12:10.205Z,50.10
2018-04-06T18:14:36.437Z,49.60
2018-04-06T18:17:02.686Z,49.80
2018-04-06T18:19:28.936Z,50.00
2018-04-06T18:21:55.214Z,49.10
2018-04-06T18:24:21.458Z,50.00
2018-04-06T18:26:47.735Z,50.60
2018-04-06T18:29:14.036Z,49.90
2018-04-06T18:31:40.431Z,50.10
2018-04-06T18:34:06.729Z,49.90
2018-04-06T18:36:33.028Z,50.60
2018-04-06T18:38:59.292Z,50.90
2018-04-06T18:41:25.542Z,51.10
2018-04-06T18:43:51.882Z,51.60
2018-04-06T18:46:18.180Z,51.60
2018-04-06T18:48:44.462Z,51.00
2018-04-06T18:51:10.720Z,51.20
2018-04-06T18:53:36.983Z,51.80
2018-04-06T18:56:03.641Z,52.40
2018-04-06T18:58:29.917Z,52.40
2018-04-06T19:00:56.227Z,53.10
2018-04-06T19:03:22.450Z,52.50
2018-04-06T19:05:49.528Z,53.40
2018-04-06T19:08:15.820Z,53.20
2018-04-06T19:10:42.127Z,54.20
2018-04-06T19:13:08.404Z,54.20
2018-04-06T19:15:34.759Z,55.10
2018-04-06T19:18:01.020Z,54.30
2018-04-06T19:20:27.423Z,54.50
2018-04-06T19:22:53.759Z,54.70
2018-04-06T19:25:20.072Z,55.20
2018-04-06T19:27:46.327Z,56.10
2018-04-06T19:30:12.949Z,57.00
2018-04-06T19:32:39.201Z,57.00
2018-04-06T19:35:05.497Z,56.30
2018-04-06T19:37:31.735Z,57.50
2018-04-06T19:39:58.053Z,56.90
2018-04-06T19:42:24.340Z,57.60
2018-04-06T19:44:50.632Z,57.30
2018-04-06T19:47:17.270Z,58.10
2018-04-06T19:49:44.021Z,57.40
2018-04-06T19:52:10.401Z,57.40
2018-04-06T19:54:36.677Z,58.50
2018-04-06T19:57:03.333Z,58.20
2018-04-06T19:59:29.661Z,58.20
2018-04-06T20:01:55.896Z,58.80
2018-04-06T20:04:22.146Z,58.40
2018-04-06T20:06:48.514Z,58.70
2018-04-06T20:09:14.776Z,58.40
2018-04-06T20:11:42.369Z,58.80
2018-04-06T20:14:08.792Z,58.80
2018-04-06T20:16:35.122Z,59.00
2018-04-06T20:19:02.341Z,59.30
2018-04-06T20:21:29.173Z,59.60
2018-04-06T20:23:55.427Z,59.60
2018-04-06T20:26:22.062Z,59.80
2018-04-06T20:28:48.843Z,59.20
2018-04-06T20:31:15.086Z,59.20
2018-04-06T20:33:41.310Z,59.70
2018-04-06T20:36:09.235Z,60.00
2018-04-06T20:38:35.485Z,60.10
2018-04-06T20:41:01.734Z,60.80
2018-04-06T20:43:28.074Z,60.30
2018-04-06T20:45:54.308Z,60.10
2018-04-06T20:48:20.538Z,60.30
2018-04-06T20:50:46.793Z,60.50
2018-04-06T20:53:13.411Z,60.90
2018-04-06T20:55:39.671Z,60.90
2018-04-06T20:58:05.940Z,61.20
2018-04-06T21:00:32.842Z,60.60
2018-04-06T21:02:59.483Z,60.70
2018-04-06T21:05:25.741Z,60.70
2018-04-06T21:07:51.988Z,61.60
2018-04-06T21:10:18.245Z,61.70
2018-04-06T21:12:44.898Z,61.70
2018-04-06T21:15:11.504Z,61.50
2018-04-06T21:17:37.751Z,61.60
2018-04-06T21:20:04.391Z,61.80
2018-04-06T21:22:31.017Z,62.10
2018-04-06T21:24:57.266Z,62.00
2018-04-06T21:27:23.894Z,61.50
2018-04-06T21:29:50.533Z,62.50
2018-04-06T21:32:17.209Z,62.20
2018-04-06T21:34:43.478Z,62.30
2018-04-06T21:37:09.771Z,62.00
2018-04-06T21:39:36.057Z,62.20
2018-04-06T21:42:02.716Z,63.40
2018-04-06T21:44:28.978Z,63.40
2018-04-06T21:46:55.213Z,63.10
2018-04-06T21:49:21.438Z,63.90
2018-04-06T21:51:47.717Z,63.70
2018-04-06T21:54:13.980Z,63.60
2018-04-06T21:56:40.263Z,64.00
2018-04-06T21:59:06.513Z,63.80
2018-04-06T22:01:33.150Z,63.80
2018-04-06T22:03:59.789Z,63.90
2018-04-06T22:06:26.062Z,63.90
2018-04-06T22:08:52.303Z,64.60
2018-04-06T22:11:18.578Z,64.20
2018-04-06T22:13:44.837Z,64.20
2018-04-06T22:16:11.116Z,65.20
2018-04-06T22:18:37.747Z,64.70
2018-04-06T22:21:03.969Z,64.70
2018-04-06T22:23:30.261Z,64.80
2018-04-06T22:25:56.517Z,64.70
2018-04-06T22:28:22.782Z,64.80
2018-04-06T22:30:49.024Z,65.10
2018-04-06T22:33:15.870Z,65.20
2018-04-06T22:35:42.079Z,65.00
2018-04-06T22:38:09.228Z,65.40
2018-04-06T22:40:35.835Z,65.40
2018-04-06T22:43:02.113Z,65.40
2018-04-06T22:45:28.363Z,65.90
2018-04-06T22:47:54.640Z,65.20
2018-04-06T22:50:21.236Z,65.10
2018-04-06T22:52:47.498Z,65.10
2018-04-06T22:55:13.746Z,65.20
2018-04-06T22:57:40.026Z,65.50
2018-04-06T23:00:06.242Z,65.50
2018-04-06T23:02:32.509Z,65.90
2018-04-06T23:04:58.728Z,65.60
2018-04-06T23:07:24.980Z,65.90
2018-04-06T23:09:51.546Z,66.00
2018-04-06T23:12:17.794Z,66.00
2018-04-06T23:14:44.023Z,65.90
2018-04-06T23:17:10.279Z,65.70
2018-04-06T23:19:36.526Z,65.40
2018-04-06T23:22:03.138Z,65.80
2018-04-06T23:24:29.360Z,65.80
2018-04-06T23:26:55.556Z,65.60
2018-04-06T23:29:21.780Z,66.10
2018-04-06T23:31:47.982Z,65.80
2018-04-06T23:34:14.570Z,65.80
2018-04-06T23:36:41.396Z,65.80
2018-04-06T23:39:07.643Z,66.30
2018-04-06T23:41:33.861Z,66.40
2018-04-06T23:44:00.093Z,66.70
2018-04-06T23:46:26.292Z,67.00
2018-04-06T23:48:52.544Z,66.80
2018-04-06T23:51:18.760Z,66.80
2018-04-06T23:53:45.006Z,66.50
2018-04-06T23:56:11.272Z,66.50
2018-04-06T23:58:37.492Z,66.90
